sensor_id;sensor_type;location;lat;lon;timestamp;pressure;altitude;pressure_sealevel;temperature;humidity
46347;BME280;32057;47.830;19.046;2023-01-29T00:01:41;100994.00;;;-0.54;100.00
46347;BME280;32057;47.830;19.046;2023-01-29T00:04:06;100996.34;;;-0.45;100.00
46347;BME280;32057;47.830;19.046;2023-01-29T00:06:31;100997.56;;;-0.40;100.00
46347;BME280;32057;47.830;19.046;2023-01-29T00:08:57;100986.16;;;-0.33;100.00
46347;BME280;32057;47.830;19.046;2023-01-29T00:11:22;100988.84;;;-0.32;100.00
46347;BME280;32057;47.830;19.046;2023-01-29T00:13:49;100992.34;;;-0.53;100.00
46347;BME280;32057;47.830;19.046;2023-01-29T00:16:14;101000.13;;;-0.52;100.00
46347;BME280;32057;47.830;19.046;2023-01-29T00:18:40;100998.03;;;-0.46;100.00
46347;BME280;32057;47.830;19.046;2023-01-29T00:21:12;100989.00;;;-0.41;100.00
46347;BME280;32057;47.830;19.046;2023-01-29T00:23:39;100989.38;;;-0.36;100.00
46347;BME280;32057;47.830;19.046;2023-01-29T00:26:05;100997.06;;;-0.36;100.00
46347;BME280;32057;47.830;19.046;2023-01-29T00:28:30;100991.25;;;-0.33;100.00
46347;BME280;32057;47.830;19.046;2023-01-29T00:30:55;100998.59;;;-0.26;100.00
46347;BME280;32057;47.830;19.046;2023-01-29T00:33:21;100998.50;;;-0.28;100.00
46347;BME280;32057;47.830;19.046;2023-01-29T00:35:46;100998.59;;;-0.26;100.00
46347;BME280;32057;47.830;19.046;2023-01-29T00:38:11;100998.16;;;-0.21;100.00
46347;BME280;32057;47.830;19.046;2023-01-29T00:40:37;100993.72;;;-0.23;100.00
46347;BME280;32057;47.830;19.046;2023-01-29T00:43:22;100995.59;;;-0.21;100.00
46347;BME280;32057;47.830;19.046;2023-01-29T00:46:05;101003.09;;;-0.12;100.00
46347;BME280;32057;47.830;19.046;2023-01-29T00:48:31;101004.31;;;-0.07;100.00
46347;BME280;32057;47.830;19.046;2023-01-29T00:50:57;101010.53;;;-0.03;100.00
46347;BME280;32057;47.830;19.046;2023-01-29T00:53:22;101008.66;;;-0.06;100.00
46347;BME280;32057;47.830;19.046;2023-01-29T00:55:47;101007.75;;;-0.06;100.00
46347;BME280;32057;47.830;19.046;2023-01-29T00:58:13;101009.09;;;0.01;100.00
46347;BME280;32057;47.830;19.046;2023-01-29T01:00:38;101009.75;;;-0.02;100.00
46347;BME280;32057;47.830;19.046;2023-01-29T01:03:03;101009.53;;;-0.05;100.00
46347;BME280;32057;47.830;19.046;2023-01-29T01:05:32;101021.63;;;-0.14;100.00
46347;BME280;32057;47.830;19.046;2023-01-29T01:07:57;101022.09;;;-0.08;100.00
46347;BME280;32057;47.830;19.046;2023-01-29T01:10:24;101021.09;;;-0.10;100.00
46347;BME280;32057;47.830;19.046;2023-01-29T01:12:56;101018.44;;;-0.12;100.00
46347;BME280;32057;47.830;19.046;2023-01-29T01:15:23;101011.09;;;-0.07;100.00
46347;BME280;32057;47.830;19.046;2023-01-29T01:17:53;101010.00;;;0.01;100.00
46347;BME280;32057;47.830;19.046;2023-01-29T01:20:21;101024.91;;;0.07;100.00
46347;BME280;32057;47.830;19.046;2023-01-29T01:22:49;101020.78;;;0.09;100.00
46347;BME280;32057;47.830;19.046;2023-01-29T01:25:15;101013.56;;;0.15;100.00
46347;BME280;32057;47.830;19.046;2023-01-29T01:27:42;101021.56;;;0.19;100.00
46347;BME280;32057;47.830;19.046;2023-01-29T01:30:12;101012.44;;;0.23;100.00
46347;BME280;32057;47.830;19.046;2023-01-29T01:32:41;101010.69;;;0.22;100.00
46347;BME280;32057;47.830;19.046;2023-01-29T01:35:06;101009.56;;;0.18;100.00
46347;BME280;32057;47.830;19.046;2023-01-29T01:37:32;101007.88;;;0.07;100.00
46347;BME280;32057;47.830;19.046;2023-01-29T01:39:57;101004.63;;;-0.02;100.00
46347;BME280;32057;47.830;19.046;2023-01-29T01:42:29;101002.00;;;0.08;100.00
46347;BME280;32057;47.830;19.046;2023-01-29T01:44:56;101011.09;;;0.05;100.00
46347;BME280;32057;47.830;19.046;2023-01-29T01:49:52;101011.22;;;-0.06;100.00
46347;BME280;32057;47.830;19.046;2023-01-29T01:52:19;101015.91;;;0.00;100.00
46347;BME280;32057;47.830;19.046;2023-01-29T01:54:44;101025.56;;;-0.08;100.00
46347;BME280;32057;47.830;19.046;2023-01-29T01:57:12;101027.75;;;-0.12;100.00
46347;BME280;32057;47.830;19.046;2023-01-29T01:59:42;101029.31;;;-0.14;100.00
46347;BME280;32057;47.830;19.046;2023-01-29T02:02:10;101031.09;;;-0.13;100.00
46347;BME280;32057;47.830;19.046;2023-01-29T02:04:54;101030.75;;;-0.06;100.00
46347;BME280;32057;47.830;19.046;2023-01-29T02:07:41;101031.69;;;0.06;100.00
46347;BME280;32057;47.830;19.046;2023-01-29T02:10:26;101031.56;;;0.05;100.00
46347;BME280;32057;47.830;19.046;2023-01-29T02:12:54;101034.00;;;0.03;100.00
46347;BME280;32057;47.830;19.046;2023-01-29T02:15:20;101037.59;;;0.17;100.00
46347;BME280;32057;47.830;19.046;2023-01-29T02:17:45;101038.91;;;0.24;100.00
46347;BME280;32057;47.830;19.046;2023-01-29T02:20:47;101041.16;;;0.31;100.00
46347;BME280;32057;47.830;19.046;2023-01-29T02:28:43;101035.16;;;0.18;100.00
46347;BME280;32057;47.830;19.046;2023-01-29T02:31:31;101041.47;;;0.00;100.00
46347;BME280;32057;47.830;19.046;2023-01-29T02:34:21;101042.91;;;-0.04;100.00
46347;BME280;32057;47.830;19.046;2023-01-29T02:36:57;101044.94;;;0.01;100.00
46347;BME280;32057;47.830;19.046;2023-01-29T02:46:59;101048.72;;;0.17;100.00
46347;BME280;32057;47.830;19.046;2023-01-29T02:49:32;101049.41;;;0.27;100.00
46347;BME280;32057;47.830;19.046;2023-01-29T02:54:30;101060.75;;;0.18;100.00
46347;BME280;32057;47.830;19.046;2023-01-29T02:57:00;101064.50;;;0.12;100.00
46347;BME280;32057;47.830;19.046;2023-01-29T02:59:42;101062.94;;;0.02;100.00
46347;BME280;32057;47.830;19.046;2023-01-29T03:02:14;101058.28;;;0.08;100.00
46347;BME280;32057;47.830;19.046;2023-01-29T03:04:52;101058.81;;;0.16;100.00
46347;BME280;32057;47.830;19.046;2023-01-29T03:07:31;101056.75;;;0.22;100.00
46347;BME280;32057;47.830;19.046;2023-01-29T03:10:20;101050.72;;;0.33;100.00
46347;BME280;32057;47.830;19.046;2023-01-29T03:12:52;101046.28;;;0.31;100.00
46347;BME280;32057;47.830;19.046;2023-01-29T03:15:22;101050.50;;;0.30;100.00
46347;BME280;32057;47.830;19.046;2023-01-29T03:18:24;101055.41;;;0.39;100.00
46347;BME280;32057;47.830;19.046;2023-01-29T03:20:46;101063.41;;;0.08;100.00
46347;BME280;32057;47.830;19.046;2023-01-29T03:23:20;101067.59;;;0.08;100.00
46347;BME280;32057;47.830;19.046;2023-01-29T03:26:07;101069.38;;;-0.03;100.00
46347;BME280;32057;47.830;19.046;2023-01-29T03:28:51;101066.28;;;0.01;100.00
46347;BME280;32057;47.830;19.046;2023-01-29T03:31:35;101069.13;;;-0.06;100.00
46347;BME280;32057;47.830;19.046;2023-01-29T03:34:22;101071.94;;;-0.03;100.00
46347;BME280;32057;47.830;19.046;2023-01-29T03:37:02;101079.63;;;-0.03;100.00
46347;BME280;32057;47.830;19.046;2023-01-29T03:39:31;101077.59;;;-0.07;100.00
46347;BME280;32057;47.830;19.046;2023-01-29T03:44:45;101073.38;;;-0.07;100.00
46347;BME280;32057;47.830;19.046;2023-01-29T03:47:13;101081.47;;;-0.12;100.00
46347;BME280;32057;47.830;19.046;2023-01-29T03:49:45;101077.03;;;-0.15;100.00
46347;BME280;32057;47.830;19.046;2023-01-29T03:52:24;101078.72;;;-0.15;100.00
46347;BME280;32057;47.830;19.046;2023-01-29T03:54:58;101073.50;;;-0.05;100.00
46347;BME280;32057;47.830;19.046;2023-01-29T03:57:33;101069.72;;;0.02;100.00
46347;BME280;32057;47.830;19.046;2023-01-29T04:02:30;101082.06;;;0.07;100.00
46347;BME280;32057;47.830;19.046;2023-01-29T04:05:00;101071.28;;;0.11;100.00
46347;BME280;32057;47.830;19.046;2023-01-29T04:07:27;101073.88;;;0.23;100.00
46347;BME280;32057;47.830;19.046;2023-01-29T04:10:20;101067.19;;;0.25;100.00
46347;BME280;32057;47.830;19.046;2023-01-29T04:12:47;101076.75;;;0.28;100.00
46347;BME280;32057;47.830;19.046;2023-01-29T04:15:14;101066.97;;;0.22;100.00
46347;BME280;32057;47.830;19.046;2023-01-29T04:17:42;101069.88;;;0.27;100.00
46347;BME280;32057;47.830;19.046;2023-01-29T04:20:08;101074.53;;;0.21;100.00
46347;BME280;32057;47.830;19.046;2023-01-29T04:22:35;101081.66;;;0.13;100.00
46347;BME280;32057;47.830;19.046;2023-01-29T04:25:02;101082.06;;;0.07;100.00
46347;BME280;32057;47.830;19.046;2023-01-29T04:28:15;101090.09;;;0.00;100.00
46347;BME280;32057;47.830;19.046;2023-01-29T04:33:09;101071.38;;;0.01;100.00
46347;BME280;32057;47.830;19.046;2023-01-29T04:43:29;101067.84;;;0.11;100.00
46347;BME280;32057;47.830;19.046;2023-01-29T04:55:48;101074.41;;;0.19;100.00
46347;BME280;32057;47.830;19.046;2023-01-29T05:00:43;101075.41;;;0.21;100.00
46347;BME280;32057;47.830;19.046;2023-01-29T05:03:11;101067.88;;;0.34;100.00
46347;BME280;32057;47.830;19.046;2023-01-29T05:05:38;101062.75;;;0.23;100.00
46347;BME280;32057;47.830;19.046;2023-01-29T05:08:05;101069.88;;;0.27;100.00
46347;BME280;32057;47.830;19.046;2023-01-29T05:10:31;101061.50;;;0.29;100.00
46347;BME280;32057;47.830;19.046;2023-01-29T05:12:59;101071.41;;;0.13;100.00
46347;BME280;32057;47.830;19.046;2023-01-29T05:15:26;101066.50;;;0.16;100.00
46347;BME280;32057;47.830;19.046;2023-01-29T05:17:53;101069.44;;;0.21;100.00
46347;BME280;32057;47.830;19.046;2023-01-29T05:20:18;101061.19;;;0.13;100.00
46347;BME280;32057;47.830;19.046;2023-01-29T05:22:44;101060.72;;;0.07;100.00
46347;BME280;32057;47.830;19.046;2023-01-29T05:25:21;101058.06;;;0.17;100.00
46347;BME280;32057;47.830;19.046;2023-01-29T05:27:47;101055.38;;;0.15;100.00
46347;BME280;32057;47.830;19.046;2023-01-29T05:30:30;101055.38;;;0.15;100.00
46347;BME280;32057;47.830;19.046;2023-01-29T05:32:55;101065.41;;;0.12;100.00
46347;BME280;32057;47.830;19.046;2023-01-29T05:35:20;101066.28;;;0.13;100.00
46347;BME280;32057;47.830;19.046;2023-01-29T05:37:46;101072.50;;;0.05;100.00
46347;BME280;32057;47.830;19.046;2023-01-29T05:40:11;101072.53;;;0.16;100.00
46347;BME280;32057;47.830;19.046;2023-01-29T05:42:36;101069.19;;;0.17;100.00
46347;BME280;32057;47.830;19.046;2023-01-29T05:45:02;101069.44;;;0.21;100.00
46347;BME280;32057;47.830;19.046;2023-01-29T05:47:27;101079.00;;;0.23;100.00
46347;BME280;32057;47.830;19.046;2023-01-29T05:49:52;101085.09;;;0.25;100.00
46347;BME280;32057;47.830;19.046;2023-01-29T05:52:17;101086.78;;;0.25;100.00
46347;BME280;32057;47.830;19.046;2023-01-29T05:54:43;101082.13;;;0.31;100.00
46347;BME280;32057;47.830;19.046;2023-01-29T05:57:08;101092.34;;;0.31;100.00
46347;BME280;32057;47.830;19.046;2023-01-29T05:59:33;101097.22;;;0.28;100.00
46347;BME280;32057;47.830;19.046;2023-01-29T06:01:59;101092.81;;;0.37;100.00
46347;BME280;32057;47.830;19.046;2023-01-29T06:04:24;101093.81;;;0.39;100.00
46347;BME280;32057;47.830;19.046;2023-01-29T06:06:49;101090.25;;;0.37;100.00
46347;BME280;32057;47.830;19.046;2023-01-29T06:09:14;101089.69;;;0.41;100.00
46347;BME280;32057;47.830;19.046;2023-01-29T06:11:40;101091.81;;;0.35;100.00
46347;BME280;32057;47.830;19.046;2023-01-29T06:14:06;101099.03;;;0.41;100.00
46347;BME280;32057;47.830;19.046;2023-01-29T06:16:31;101100.16;;;0.32;100.00
46347;BME280;32057;47.830;19.046;2023-01-29T06:18:57;101105.34;;;0.34;100.00
46347;BME280;32057;47.830;19.046;2023-01-29T06:21:22;101097.69;;;0.34;100.00
46347;BME280;32057;47.830;19.046;2023-01-29T06:23:47;101101.25;;;0.36;100.00
46347;BME280;32057;47.830;19.046;2023-01-29T06:26:13;101115.38;;;0.31;100.00
46347;BME280;32057;47.830;19.046;2023-01-29T06:28:39;101112.03;;;0.32;100.00
46347;BME280;32057;47.830;19.046;2023-01-29T06:31:05;101120.50;;;0.31;100.00
46347;BME280;32057;47.830;19.046;2023-01-29T06:33:30;101132.88;;;0.36;100.00
46347;BME280;32057;47.830;19.046;2023-01-29T06:35:59;101131.66;;;0.43;100.00
46347;BME280;32057;47.830;19.046;2023-01-29T06:38:25;101125.78;;;0.44;100.00
46347;BME280;32057;47.830;19.046;2023-01-29T06:40:51;101120.41;;;0.41;100.00
46347;BME280;32057;47.830;19.046;2023-01-29T06:43:17;101122.97;;;0.41;100.00
46347;BME280;32057;47.830;19.046;2023-01-29T06:45:55;101125.41;;;0.39;100.00
46347;BME280;32057;47.830;19.046;2023-01-29T06:48:21;101134.00;;;0.40;100.00
46347;BME280;32057;47.830;19.046;2023-01-29T06:50:47;101132.19;;;0.39;100.00
46347;BME280;32057;47.830;19.046;2023-01-29T06:53:13;101127.88;;;0.38;100.00
46347;BME280;32057;47.830;19.046;2023-01-29T06:55:39;101117.09;;;0.42;100.00
46347;BME280;32057;47.830;19.046;2023-01-29T06:58:08;101127.97;;;0.39;100.00
46347;BME280;32057;47.830;19.046;2023-01-29T07:00:33;101128.88;;;0.40;100.00
46347;BME280;32057;47.830;19.046;2023-01-29T07:02:58;101125.78;;;0.44;100.00
46347;BME280;32057;47.830;19.046;2023-01-29T07:05:24;101114.84;;;0.47;100.00
46347;BME280;32057;47.830;19.046;2023-01-29T07:07:49;101104.28;;;0.42;100.00
46347;BME280;32057;47.830;19.046;2023-01-29T07:10:14;101111.84;;;0.41;100.00
46347;BME280;32057;47.830;19.046;2023-01-29T07:12:40;101116.41;;;0.45;100.00
46347;BME280;32057;47.830;19.046;2023-01-29T07:15:05;101108.59;;;0.43;100.00
46347;BME280;32057;47.830;19.046;2023-01-29T07:17:31;101104.81;;;0.50;100.00
46347;BME280;32057;47.830;19.046;2023-01-29T07:19:56;101110.84;;;0.50;100.00
46347;BME280;32057;47.830;19.046;2023-01-29T07:22:21;101114.63;;;0.55;100.00
46347;BME280;32057;47.830;19.046;2023-01-29T07:24:46;101108.59;;;0.43;100.00
46347;BME280;32057;47.830;19.046;2023-01-29T07:27:12;101100.38;;;0.47;100.00
46347;BME280;32057;47.830;19.046;2023-01-29T07:29:37;101090.81;;;0.45;100.00
46347;BME280;32057;47.830;19.046;2023-01-29T07:32:03;101080.88;;;0.49;100.00
46347;BME280;32057;47.830;19.046;2023-01-29T07:34:28;101094.03;;;0.42;100.00
46347;BME280;32057;47.830;19.046;2023-01-29T07:36:54;101092.56;;;0.46;100.00
46347;BME280;32057;47.830;19.046;2023-01-29T07:39:20;101090.56;;;0.53;100.00
46347;BME280;32057;47.830;19.046;2023-01-29T07:41:46;101094.13;;;0.55;100.00
46347;BME280;32057;47.830;19.046;2023-01-29T07:44:11;101094.50;;;0.60;100.00
46347;BME280;32057;47.830;19.046;2023-01-29T07:46:36;101095.25;;;0.59;100.00
46347;BME280;32057;47.830;19.046;2023-01-29T07:49:01;101103.50;;;0.67;100.00
46347;BME280;32057;47.830;19.046;2023-01-29T07:51:27;101103.06;;;0.61;100.00
46347;BME280;32057;47.830;19.046;2023-01-29T07:53:52;101105.75;;;0.62;100.00
46347;BME280;32057;47.830;19.046;2023-01-29T07:56:17;101107.81;;;0.56;100.00
46347;BME280;32057;47.830;19.046;2023-01-29T07:58:42;101102.50;;;0.65;100.00
46347;BME280;32057;47.830;19.046;2023-01-29T08:01:08;101105.94;;;0.77;100.00
46347;BME280;32057;47.830;19.046;2023-01-29T08:03:33;101111.94;;;0.77;100.00
46347;BME280;32057;47.830;19.046;2023-01-29T08:05:58;101104.38;;;0.67;100.00
46347;BME280;32057;47.830;19.046;2023-01-29T08:08:24;101111.31;;;0.68;100.00
46347;BME280;32057;47.830;19.046;2023-01-29T08:10:49;101121.06;;;0.74;100.00
46347;BME280;32057;47.830;19.046;2023-01-29T08:13:15;101119.63;;;0.66;100.00
46347;BME280;32057;47.830;19.046;2023-01-29T08:15:43;101109.38;;;0.66;100.00
46347;BME280;32057;47.830;19.046;2023-01-29T08:18:11;101113.06;;;0.69;100.00
46347;BME280;32057;47.830;19.046;2023-01-29T08:20:37;101113.75;;;0.67;100.00
46347;BME280;32057;47.830;19.046;2023-01-29T08:23:08;101111.31;;;0.68;100.00
46347;BME280;32057;47.830;19.046;2023-01-29T08:25:34;101117.50;;;0.72;100.00
46347;BME280;32057;47.830;19.046;2023-01-29T08:27:59;101111.63;;;0.73;100.00
46347;BME280;32057;47.830;19.046;2023-01-29T08:30:26;101117.75;;;0.75;100.00
46347;BME280;32057;47.830;19.046;2023-01-29T08:32:51;101116.63;;;0.95;100.00
46347;BME280;32057;47.830;19.046;2023-01-29T08:35:16;101123.31;;;0.93;100.00
46347;BME280;32057;47.830;19.046;2023-01-29T08:37:42;101131.09;;;0.94;100.00
46347;BME280;32057;47.830;19.046;2023-01-29T08:40:07;101134.22;;;0.90;100.00
46347;BME280;32057;47.830;19.046;2023-01-29T08:42:35;101146.69;;;0.74;100.00
46347;BME280;32057;47.830;19.046;2023-01-29T08:45:00;101140.91;;;0.65;100.00
46347;BME280;32057;47.830;19.046;2023-01-29T08:47:25;101148.25;;;0.72;100.00
46347;BME280;32057;47.830;19.046;2023-01-29T08:49:50;101146.03;;;0.76;100.00
46347;BME280;32057;47.830;19.046;2023-01-29T08:52:16;101149.38;;;0.64;100.00
46347;BME280;32057;47.830;19.046;2023-01-29T08:54:41;101152.59;;;0.61;100.00
46347;BME280;32057;47.830;19.046;2023-01-29T08:57:06;101152.94;;;0.77;100.00
46347;BME280;32057;47.830;19.046;2023-01-29T08:59:31;101152.50;;;0.83;100.00
46347;BME280;32057;47.830;19.046;2023-01-29T09:01:57;101152.16;;;0.90;100.00
46347;BME280;32057;47.830;19.046;2023-01-29T09:04:22;101155.84;;;0.82;100.00
46347;BME280;32057;47.830;19.046;2023-01-29T09:06:47;101150.03;;;0.85;100.00
46347;BME280;32057;47.830;19.046;2023-01-29T09:09:13;101158.19;;;0.79;100.00
46347;BME280;32057;47.830;19.046;2023-01-29T09:11:38;101159.19;;;0.81;100.00
46347;BME280;32057;47.830;19.046;2023-01-29T09:14:04;101153.84;;;0.78;100.00
46347;BME280;32057;47.830;19.046;2023-01-29T09:16:30;101155.16;;;0.85;100.00
46347;BME280;32057;47.830;19.046;2023-01-29T09:18:55;101149.59;;;0.90;100.00
46347;BME280;32057;47.830;19.046;2023-01-29T09:21:20;101144.56;;;0.92;100.00
46347;BME280;32057;47.830;19.046;2023-01-29T09:23:46;101156.16;;;0.87;100.00
46347;BME280;32057;47.830;19.046;2023-01-29T09:26:11;101149.38;;;0.87;100.00
46347;BME280;32057;47.830;19.046;2023-01-29T09:28:36;101158.06;;;0.89;100.00
46347;BME280;32057;47.830;19.046;2023-01-29T09:31:02;101172.22;;;0.84;100.00
46347;BME280;32057;47.830;19.046;2023-01-29T09:33:27;101155.50;;;0.89;100.00
46347;BME280;32057;47.830;19.046;2023-01-29T09:35:53;101159.63;;;0.87;99.82
46347;BME280;32057;47.830;19.046;2023-01-29T09:38:18;101165.19;;;0.93;99.59
46347;BME280;32057;47.830;19.046;2023-01-29T09:43:13;101161.41;;;0.88;98.83
46347;BME280;32057;47.830;19.046;2023-01-29T09:45:49;101171.09;;;0.92;100.00
46347;BME280;32057;47.830;19.046;2023-01-29T09:48:16;101167.88;;;0.95;99.51
46347;BME280;32057;47.830;19.046;2023-01-29T09:50:46;101170.88;;;0.89;98.81
46347;BME280;32057;47.830;19.046;2023-01-29T09:56:33;101178.13;;;0.95;98.59
46347;BME280;32057;47.830;19.046;2023-01-29T09:58:39;101170.53;;;0.96;97.90
46347;BME280;32057;47.830;19.046;2023-01-29T10:11:44;101172.31;;;1.09;95.27
46347;BME280;32057;47.830;19.046;2023-01-29T10:14:13;101178.78;;;1.16;93.04
46347;BME280;32057;47.830;19.046;2023-01-29T10:16:48;101180.09;;;1.11;92.81
46347;BME280;32057;47.830;19.046;2023-01-29T10:26:52;101178.13;;;0.95;94.14
46347;BME280;32057;47.830;19.046;2023-01-29T10:29:19;101174.53;;;1.05;92.72
46347;BME280;32057;47.830;19.046;2023-01-29T10:31:46;101172.09;;;0.94;92.14
46347;BME280;32057;47.830;19.046;2023-01-29T10:34:15;101177.34;;;0.96;89.79
46347;BME280;32057;47.830;19.046;2023-01-29T10:36:46;101169.97;;;1.01;89.13
46347;BME280;32057;47.830;19.046;2023-01-29T10:39:15;101175.09;;;1.01;90.11
46347;BME280;32057;47.830;19.046;2023-01-29T10:55:15;101156.84;;;0.96;86.26
46347;BME280;32057;47.830;19.046;2023-01-29T11:00:32;101157.28;;;1.02;86.21
46347;BME280;32057;47.830;19.046;2023-01-29T11:03:03;101146.66;;;1.09;88.25
46347;BME280;32057;47.830;19.046;2023-01-29T11:05:48;101140.25;;;0.91;86.03
46347;BME280;32057;47.830;19.046;2023-01-29T11:08:17;101129.75;;;0.99;85.98
46347;BME280;32057;47.830;19.046;2023-01-29T11:10:50;101138.13;;;0.85;88.13
46347;BME280;32057;47.830;19.046;2023-01-29T11:13:19;101142.25;;;0.95;87.59
46347;BME280;32057;47.830;19.046;2023-01-29T11:15:46;101132.19;;;1.10;88.37
46347;BME280;32057;47.830;19.046;2023-01-29T11:18:15;101112.47;;;1.09;88.08
46347;BME280;32057;47.830;19.046;2023-01-29T11:20:41;101106.53;;;1.10;86.85
46347;BME280;32057;47.830;19.046;2023-01-29T11:23:26;101099.63;;;1.21;86.04
46347;BME280;32057;47.830;19.046;2023-01-29T11:25:53;101094.50;;;1.21;82.50
46347;BME280;32057;47.830;19.046;2023-01-29T11:31:13;101078.00;;;1.17;81.44
46347;BME280;32057;47.830;19.046;2023-01-29T11:33:39;101070.56;;;1.20;82.00
46347;BME280;32057;47.830;19.046;2023-01-29T11:36:18;101075.56;;;1.18;81.14
46347;BME280;32057;47.830;19.046;2023-01-29T11:38:44;101075.66;;;1.32;82.74
46347;BME280;32057;47.830;19.046;2023-01-29T11:41:15;101070.59;;;1.33;81.27
46347;BME280;32057;47.830;19.046;2023-01-29T11:43:46;101067.03;;;1.31;81.09
46347;BME280;32057;47.830;19.046;2023-01-29T11:46:12;101071.13;;;1.16;77.68
46347;BME280;32057;47.830;19.046;2023-01-29T11:48:41;101074.31;;;1.25;80.19
46347;BME280;32057;47.830;19.046;2023-01-29T11:51:09;101071.53;;;1.22;80.06
46347;BME280;32057;47.830;19.046;2023-01-29T11:56:02;101061.66;;;1.40;80.84
46347;BME280;32057;47.830;19.046;2023-01-29T11:58:28;101064.25;;;1.40;78.99
46347;BME280;32057;47.830;19.046;2023-01-29T12:00:55;101067.59;;;1.27;76.33
46347;BME280;32057;47.830;19.046;2023-01-29T12:03:27;101073.69;;;1.16;77.94
46347;BME280;32057;47.830;19.046;2023-01-29T12:06:16;101067.56;;;1.14;79.77
46347;BME280;32057;47.830;19.046;2023-01-29T12:08:42;101067.41;;;1.24;80.48
46347;BME280;32057;47.830;19.046;2023-01-29T12:11:08;101056.59;;;1.28;78.90
46347;BME280;32057;47.830;19.046;2023-01-29T12:13:34;101065.63;;;1.23;79.71
46347;BME280;32057;47.830;19.046;2023-01-29T12:18:33;101069.09;;;1.12;80.18
46347;BME280;32057;47.830;19.046;2023-01-29T12:21:03;101077.81;;;1.14;80.55
46347;BME280;32057;47.830;19.046;2023-01-29T12:25:59;101070.47;;;1.07;79.96
46347;BME280;32057;47.830;19.046;2023-01-29T12:33:42;101065.41;;;0.71;81.83
46347;BME280;32057;47.830;19.046;2023-01-29T12:36:12;101062.72;;;0.70;80.25
46347;BME280;32057;47.830;19.046;2023-01-29T12:38:40;101064.72;;;0.74;80.27
46347;BME280;32057;47.830;19.046;2023-01-29T12:41:12;101059.16;;;0.79;81.38
46347;BME280;32057;47.830;19.046;2023-01-29T12:43:47;101054.13;;;0.81;81.51
46347;BME280;32057;47.830;19.046;2023-01-29T12:46:21;101040.00;;;0.86;80.69
46347;BME280;32057;47.830;19.046;2023-01-29T12:48:48;101033.63;;;0.93;79.16
46347;BME280;32057;47.830;19.046;2023-01-29T12:51:16;101026.63;;;0.90;77.72
46347;BME280;32057;47.830;19.046;2023-01-29T12:53:44;101014.34;;;0.98;78.86
46347;BME280;32057;47.830;19.046;2023-01-29T12:56:33;101013.94;;;1.17;79.99
46347;BME280;32057;47.830;19.046;2023-01-29T12:58:58;101012.34;;;1.19;79.58
46347;BME280;32057;47.830;19.046;2023-01-29T13:06:16;100995.50;;;1.48;85.84
46347;BME280;32057;47.830;19.046;2023-01-29T13:09:19;100997.81;;;1.31;77.08
46347;BME280;32057;47.830;19.046;2023-01-29T13:11:43;100999.13;;;1.13;77.96
46347;BME280;32057;47.830;19.046;2023-01-29T13:17:09;100999.81;;;1.10;76.56
46347;BME280;32057;47.830;19.046;2023-01-29T13:19:41;101000.19;;;1.28;79.91
46347;BME280;32057;47.830;19.046;2023-01-29T13:22:19;101007.78;;;1.65;81.32
46347;BME280;32057;47.830;19.046;2023-01-29T13:24:46;101011.69;;;1.47;78.31
46347;BME280;32057;47.830;19.046;2023-01-29T13:27:18;101006.50;;;1.33;75.34
46347;BME280;32057;47.830;19.046;2023-01-29T13:29:45;101004.72;;;1.32;77.24
46347;BME280;32057;47.830;19.046;2023-01-29T13:32:10;100999.22;;;1.14;75.80
46347;BME280;32057;47.830;19.046;2023-01-29T13:34:36;100996.72;;;1.03;75.66
46347;BME280;32057;47.830;19.046;2023-01-29T13:37:11;101001.47;;;1.10;76.83
46347;BME280;32057;47.830;19.046;2023-01-29T13:39:45;100996.91;;;1.06;75.69
46347;BME280;32057;47.830;19.046;2023-01-29T13:42:16;100983.81;;;1.26;81.51
46347;BME280;32057;47.830;19.046;2023-01-29T13:44:45;100982.25;;;1.28;77.07
46347;BME280;32057;47.830;19.046;2023-01-29T13:47:19;100983.81;;;1.26;75.08
46347;BME280;32057;47.830;19.046;2023-01-29T13:49:46;100989.09;;;1.16;75.44
46347;BME280;32057;47.830;19.046;2023-01-29T13:54:57;100983.53;;;1.10;75.62
46347;BME280;32057;47.830;19.046;2023-01-29T13:57:46;100988.56;;;1.08;75.99
46347;BME280;32057;47.830;19.046;2023-01-29T14:02:37;100981.75;;;1.09;76.04
46347;BME280;32057;47.830;19.046;2023-01-29T14:10:38;100998.28;;;1.01;76.97
46347;BME280;32057;47.830;19.046;2023-01-29T14:20:20;100989.19;;;0.92;78.37
46347;BME280;32057;47.830;19.046;2023-01-29T14:22:55;100991.84;;;0.94;79.76
46347;BME280;32057;47.830;19.046;2023-01-29T14:25:22;100991.75;;;0.92;80.04
46347;BME280;32057;47.830;19.046;2023-01-29T14:27:52;100989.22;;;0.81;79.93
46347;BME280;32057;47.830;19.046;2023-01-29T14:30:17;100993.69;;;0.71;79.92
46347;BME280;32057;47.830;19.046;2023-01-29T14:32:47;100996.34;;;0.73;81.18
46347;BME280;32057;47.830;19.046;2023-01-29T14:35:20;101005.03;;;0.75;80.90
46347;BME280;32057;47.830;19.046;2023-01-29T14:38:06;101007.41;;;0.60;80.91
46347;BME280;32057;47.830;19.046;2023-01-29T14:40:37;101008.44;;;0.50;80.94
46347;BME280;32057;47.830;19.046;2023-01-29T14:45:31;101008.44;;;0.50;80.69
46347;BME280;32057;47.830;19.046;2023-01-29T14:48:18;101006.75;;;0.39;80.81
46347;BME280;32057;47.830;19.046;2023-01-29T14:50:47;100998.19;;;0.38;82.06
46347;BME280;32057;47.830;19.046;2023-01-29T14:53:18;100983.03;;;0.30;82.09
46347;BME280;32057;47.830;19.046;2023-01-29T14:58:13;100981.47;;;0.32;82.98
46347;BME280;32057;47.830;19.046;2023-01-29T15:00:40;100991.66;;;0.18;82.97
46347;BME280;32057;47.830;19.046;2023-01-29T15:03:23;100990.97;;;0.21;81.93